• Join FlightAware (Why Join?)
  • Login
  • US Flag 
12:35PM EDT


 

Airport Tracker/Info


-or-


 

Live Flight TrackerFlight Track Log ✈ GJS3657 ✈ 18-Jun-2013 ✈ KALB - KORD

Flight Track Log - Related Links

Times and Time Zones

All times are in EDT time to prevent confusion due to time zone crossing. See the GJS3657 flight status page for this flight to view local times or setup timezone preferences in your user account.

Time Position Orientation Groundspeed Altitude Reporting Facility
EDT Latitude Longitude Course Direction KTS MPH feet Rate Location/Type
08:50AM 42.8381 -73.8219 341° North 229 264 3,900  Level Boston Center
08:51AM 42.9147 -73.8575 341° North 220 253 7,000 2,220 Climbing Boston Center
08:52AM 42.9661 -73.9156 320° Northwest 233 268 9,400 1,800 Climbing Boston Center
08:53AM 43.0297 -73.9825 322° Northwest 252 290 10,700 1,500 Climbing Boston Center
08:54AM 43.1017 -74.0639 320° Northwest 297 342 12,400 1,800 Climbing Boston Center
08:55AM 43.1164 -74.1836 280° West 305 351 14,300 1,560 Climbing Boston Center
08:56AM 43.1186 -74.3117 271° West 310 357 15,600 1,440 Climbing Boston Center
08:57AM 43.1228 -74.4428 273° West 337 388 17,200 1,620 Climbing Boston Center
08:58AM 43.1264 -74.5767 272° West 348 400 18,900 1,500 Climbing Boston Center
08:59AM 43.1303 -74.7103 272° West 354 407 20,300 1,260 Climbing Boston Center
09:00AM 43.1336 -74.8528 272° West 364 419 21,500 1,200 Climbing Boston Center
09:01AM 43.1367 -74.9981 272° West 377 434 22,800 1,320 Climbing Boston Center
09:02AM 43.1417 -75.1433 273° West 382 440 24,200 1,320 Climbing Boston Center
09:03AM 43.1444 -75.2858 272° West 382 440 25,500 1,080 Climbing Boston Center
09:04AM 43.1472 -75.4169 272° West 382 440 26,400 900 Climbing Boston Center
09:05AM 43.1494 -75.5650 271° West 387 445 27,400 960 Climbing Boston Center
09:06AM 43.1517 -75.7103 271° West 387 445 28,400 960 Climbing Boston Center
09:07AM 43.1558 -75.8586 272° West 387 445 29,400 1,020 Climbing Boston Center
09:09AM 43.1333 -76.0667 262° West 380 437 31,200 1,020 Climbing Toronto Center
09:10AM 43.1617 -76.2222 284° West 375 432 32,000 960 Climbing Cleveland Center
09:11AM 43.1606 -76.3619 269° West 370 426 33,000 960 Climbing Cleveland Center
09:12AM 43.1633 -76.4956 272° West 365 420 34,000 900 Climbing Cleveland Center
09:13AM 43.1617 -76.6294 269° West 365 420 34,900 840 Climbing Cleveland Center
09:14AM 43.1594 -76.7436 269° West 360 414 35,700 540 Climbing Cleveland Center
09:15AM 43.1594 -76.8744 270° West 349 402 36,000 120 Climbing Cleveland Center
09:16AM 43.1594 -77.0083 270° West 349 402 36,000  Level Cleveland Center
09:17AM 43.1572 -77.1394 269° West 349 402 36,000  Level Cleveland Center
09:18AM 43.1569 -77.2733 270° West 349 402 36,000  Level Cleveland Center
09:19AM 43.1564 -77.4069 270° West 349 402 36,000  Level Cleveland Center
09:20AM 43.1558 -77.5408 270° West 349 402 36,000  Level Cleveland Center
09:21AM 43.1533 -77.6775 269° West 349 402 36,000  Level Cleveland Center
09:22AM 43.1522 -77.8114 269° West 354 407 36,000  Level Cleveland Center
09:23AM 43.1514 -77.9481 270° West 359 413 36,000  Level Cleveland Center
09:24AM 43.1481 -78.0819 268° West 359 413 36,000  Level Cleveland Center
09:25AM 43.1467 -78.2186 269° West 359 413 36,000  Level Cleveland Center
09:26AM 43.1453 -78.3525 269° West 364 419 36,000 240 Level Cleveland Center
09:27AM 43.1417 -78.4919 268° West 364 419 36,500 540 Climbing Cleveland Center
09:28AM 43.1378 -78.6258 268° West 364 419 37,100 660 Climbing Cleveland Center
09:29AM 43.1317 -78.7683 267° West 369 425 37,900 420 Climbing Cleveland Center
09:30AM 43.1294 -78.8992 269° West 364 419 38,000  Climbing Cleveland Center
09:31AM 43.1250 -79.0331 267° West 364 419 38,000  Level Cleveland Center
09:32AM 43.1167 -79.1833 266° West 360 414 38,000  Level Toronto Center
09:33AM 43.1000 -79.3167 260° West 360 414 38,000  Level Toronto Center
09:34AM 43.1000 -79.4667 270° West 370 426 38,000  Level Toronto Center
09:35AM 43.1000 -79.6167 270° West 370 426 38,000  Level Toronto Center
09:36AM 43.0833 -79.7500 260° West 370 426 38,000  Level Toronto Center
09:37AM 43.0833 -79.8833 270° West 380 437 38,000  Level Toronto Center
09:38AM 43.0833 -80.0167 270° West 380 437 38,000  Level Toronto Center
09:39AM 43.0667 -80.1833 262° West 380 437 38,000  Level Toronto Center
09:40AM 43.0667 -80.3167 270° West 380 437 38,000  Level Toronto Center
09:41AM 43.0667 -80.4833 270° West 380 437 38,000  Level Toronto Center
09:42AM 43.0500 -80.6167 260° West 390 449 38,000  Level Toronto Center
09:43AM 43.0500 -80.7500 270° West 390 449 38,000  Level Toronto Center
09:44AM 43.0333 -80.9167 262° West 390 449 38,000  Level Toronto Center
09:45AM 43.0167 -81.0500 260° West 390 449 38,000  Level Toronto Center
09:46AM 43.0167 -81.2000 270° West 390 449 38,000  Level Toronto Center
09:47AM 43.0167 -81.3500 270° West 390 449 38,000  Level Toronto Center
09:48AM 43.0167 -81.5000 270° West 390 449 38,000  Level Toronto Center
09:49AM 43.0167 -81.6667 270° West 400 460 38,000  Level Toronto Center
09:50AM 43.0167 -81.8000 270° West 400 460 38,000  Level Toronto Center
09:51AM 43.0000 -81.9667 262° West 400 460 38,000  Level Toronto Center
09:52AM 43.0000 -82.1167 270° West 390 449 38,000  Level Toronto Center
09:53AM 43.0000 -82.2500 270° West 390 449 38,000  Level Toronto Center
09:54AM 43.0000 -82.4167 270° West 400 460 38,000  Level Toronto Center
09:55AM 43.0000 -82.5500 270° West 400 460 38,000  Level Toronto Center
09:56AM 43.0039 -82.6783 272° West 405 466 38,000  Level Cleveland Center
09:57AM 42.9989 -82.8286 267° West 405 466 38,000  Level Cleveland Center
09:58AM 42.9917 -82.9817 266° West 405 466 38,000  Level Cleveland Center
09:59AM 42.9886 -83.1292 268° West 400 460 38,000  Level Cleveland Center
10:00AM 42.9811 -83.2792 266° West 400 460 38,000 -60 Level Cleveland Center
10:01AM 42.9772 -83.4322 268° West 405 466 37,900 -540 Descending Cleveland Center
10:02AM 42.9733 -83.5856 268° West 405 466 37,000 -900 Descending Cleveland Center
10:03AM 42.9650 -83.7411 266° West 411 473 36,100 -1,020 Descending Cleveland Center
10:04AM 42.9525 -83.8908 264° West 411 473 35,000 -1,080 Descending Cleveland Center
10:05AM 42.9378 -84.0433 263° West 406 467 34,000 -1,020 Descending Cleveland Center
10:06AM 42.9225 -84.2011 263° West 411 473 33,000 -900 Descending Cleveland Center
10:07AM 42.9042 -84.3947 263° West 425 489 32,000 -480 Descending Chicago Center
10:08AM 42.8869 -84.5542 262° West 424 488 32,000  Level Chicago Center
10:09AM 42.8672 -84.7525 262° West 433 498 32,000  Level Chicago Center
10:10AM 42.8486 -84.9192 261° West 442 509 32,000  Level Chicago Center
10:11AM 42.8325 -85.0772 262° West 435 501 32,000  Level Chicago Center
10:12AM 42.8158 -85.2369 262° West 429 494 32,000  Level Chicago Center
10:13AM 42.7983 -85.3986 262° West 430 495 32,000  Level Chicago Center
10:14AM 42.7758 -85.5581 259° West 429 494 32,000 -1,140 Level Chicago Center
10:15AM 42.7475 -85.7144 256° West 426 490 29,700 -2,700 Descending Chicago Center
10:16AM 42.7197 -85.8672 256° West 417 480 26,500 -3,540 Descending Chicago Center
10:17AM 42.6867 -86.0508 256° West 414 476 22,500 -3,000 Descending Chicago Center
10:18AM 42.6586 -86.2017 256° West 411 473 20,300 -1,380 Descending Chicago Center
10:20AM 42.6314 -86.3439 255° West 394 453 19,700 -1,320 Descending Chicago Center
10:21AM 42.6053 -86.4844 256° West 387 445 17,600 -1,920 Descending Chicago Center
10:22AM 42.5775 -86.6256 255° West 385 443 15,700 -2,100 Descending Chicago Center
10:23AM 42.5522 -86.7633 256° West 377 434 13,300 -2,160 Descending Chicago Center
10:24AM 42.5167 -86.8886 249° West 361 415 11,300 -1,620 Descending Chicago Center
10:25AM 42.4778 -87.0331 250° West 343 395 10,000 -660 Descending Chicago Center
10:26AM 42.4444 -87.1500 249° West 335 386 10,000  Level Chicago Center
10:27AM 42.4114 -87.2675 249° West 336 387 10,000  Level Chicago Center
10:28AM 42.3764 -87.3969 250° West 337 388 10,000  Level Chicago Center
10:29AM 42.3439 -87.5142 249° West 337 388 10,000  Level Chicago Center
10:30AM 42.2753 -87.6006 223° Southwest 347 399 10,000  Level Chicago Center
10:31AM 42.2025 -87.6803 219° Southwest 340 391 10,000 -180 Level Chicago Center
10:32AM 42.1258 -87.7578 217° Southwest 290 334 9,700 -900 Descending Chicago Center
10:33AM 42.0903 -87.8414 240° Southwest 270 311 8,200 -1,320 Descending Chicago Center
10:34AM 42.0911 -87.9414 271° West 271 312 7,000 -600 Descending Chicago Center
10:35AM 42.0908 -88.0403 270° West 267 307 7,000 -600 Level Chicago Center
10:36AM 42.0908 -88.1400 270° West 268 308 5,800 -1,380 Descending Chicago Center
10:37AM 42.0911 -88.2589 270° West 268 308 4,200 -900 Descending Chicago Center
10:38AM 42.0894 -88.3550 269° West 264 304 4,000 -120 Descending Chicago Center
10:39AM 42.0667 -88.4175 244° Southwest 240 276 4,000  Level Chicago Center
10:40AM 42.0044 -88.3950 165° South 238 274 4,000  Level Chicago Center
10:41AM 41.9819 -88.3242 113° Southeast 234 269 4,000  Level Chicago Center
10:42AM 41.9836 -88.2256 89° East 228 262 4,000  Level Chicago Center
10:43AM 41.9836 -88.1503 90° East 215 247 4,000 -480 Level Chicago Center
10:44AM 41.9831 -88.0781 91° East 205 236 3,100 -960 Descending Chicago Center
10:45AM 41.9836 -88.0117 89° East 195 224 2,100 -840 Descending Chicago Center
10:46AM 41.9833 -87.9597 90° East 170 196 1,400 -720 Descending Chicago Center
10:48AM 41.9817 -87.9067 217° Southwest  Level Estimated
10:55AM 41.9817 -87.9067 217° Southwest  Level Estimated